Decoded Metar for VOTV (TRIVANDRUM in INDIA) (IATA:TRV) | Meteo·Mobile Aviation Weather
aviador You're here:

VOTV Decoded Metar

TRIVANDRUM in INDIA
Report Time2019-01-20 11:30:00
UTC Time2019-01-20 11:56:13
Flight Rules mvfr MVFR
Wind210° at 04 kt
W.Decomp.*RWY 14: 1.2 kt HW 3.8 kt RCW
W.Rank210° ranks 17
Current wind is below 210° avg. (4.7)
Visibility5000 m
Phenomena:Haze
Clouds:Few 015 Hf
Broken 090 Hf
Expected CloudBase > 2,400 ft AGL from Temp-Dew spread
Ceiling9,000 ft
Temp29°C (ISA +14)
Dew Point23°C (70% RH)
Heat Index32.7°C
QNH1010 hPa
Density Alt2,110 ft
Elevation26 ft
Report Wrong Elevation
Raw Report
VOTV 201130Z 21004KT 5000 HZ FEW015 BKN090 29/23 Q1010 NOSIG=

Extra information for VOTV:More info

Metar Taf Metar & Taf Last 4 Metars F.Rules Stats Wind Profile Meteogram Temp Stats Airport Information Weather charts Add Link Nearby VenuesMetar ALERT Operation Metar Decoded Social comments